createdAt,value
2019-05-18T00:02:02.567Z,9.00
2019-05-18T00:06:01.120Z,9.00
2019-05-18T00:09:59.747Z,8.80
2019-05-18T00:14:02.612Z,8.80
2019-05-18T00:18:15.648Z,8.70
2019-05-18T00:22:14.106Z,8.70
2019-05-18T00:26:19.230Z,8.50
2019-05-18T00:30:21.291Z,8.50
2019-05-18T00:34:30.343Z,8.50
2019-05-18T00:38:34.590Z,8.50
2019-05-18T00:42:43.123Z,8.50
2019-05-18T00:46:41.782Z,8.50
2019-05-18T00:50:45.874Z,8.50
2019-05-18T00:55:08.851Z,8.40
2019-05-18T00:58:46.830Z,8.30
2019-05-18T01:03:12.761Z,8.20
2019-05-18T01:07:05.439Z,8.10
2019-05-18T01:11:03.965Z,8.00
2019-05-18T01:15:02.517Z,7.90
2019-05-18T01:19:15.464Z,7.90
2019-05-18T01:23:16.497Z,8.00
2019-05-18T01:27:25.042Z,7.90
2019-05-18T01:31:29.947Z,7.90
2019-05-18T01:35:28.462Z,7.90
2019-05-18T01:39:32.218Z,7.80
2019-05-18T01:44:05.221Z,7.70
2019-05-18T01:48:13.341Z,7.60
2019-05-18T01:52:04.377Z,7.60
2019-05-18T02:00:26.179Z,7.70
2019-05-18T02:04:30.147Z,7.70
2019-05-18T02:08:28.679Z,7.60
2019-05-18T02:12:28.591Z,7.50
2019-05-18T02:16:27.114Z,7.50
2019-05-18T02:20:27.187Z,7.50
2019-05-18T02:24:29.686Z,7.50
2019-05-18T02:28:28.166Z,7.60
2019-05-18T02:32:27.367Z,7.50
2019-05-18T02:36:30.381Z,7.40
2019-05-18T02:40:32.733Z,7.40
2019-05-18T02:44:36.471Z,7.40
2019-05-18T02:48:48.585Z,7.40
2019-05-18T02:52:45.400Z,7.40
2019-05-18T02:56:51.303Z,7.20
2019-05-18T03:00:54.446Z,7.20
2019-05-18T03:04:52.911Z,7.20
2019-05-18T03:08:51.525Z,7.10
2019-05-18T03:12:53.776Z,7.00
2019-05-18T03:16:52.286Z,7.00
2019-05-18T03:20:50.803Z,7.10
2019-05-18T03:24:50.802Z,7.10
2019-05-18T03:28:51.266Z,7.00
2019-05-18T03:33:02.814Z,7.00
2019-05-18T03:36:58.917Z,7.00
2019-05-18T03:40:57.366Z,6.90
2019-05-18T03:44:56.973Z,7.00
2019-05-18T03:48:58.749Z,6.90
2019-05-18T03:52:57.237Z,7.10
2019-05-18T03:56:55.768Z,7.10
2019-05-18T04:00:57.853Z,7.30
2019-05-18T04:09:17.922Z,7.50
2019-05-18T04:13:22.124Z,7.60
2019-05-18T04:17:21.021Z,7.50
2019-05-18T04:21:22.124Z,7.40
2019-05-18T04:25:22.892Z,7.50
2019-05-18T04:29:23.303Z,7.60
2019-05-18T04:33:22.070Z,7.50
2019-05-18T04:37:20.929Z,7.50
2019-05-18T04:41:31.664Z,7.60
2019-05-18T04:45:33.112Z,7.70
2019-05-18T04:49:31.646Z,7.90
2019-05-18T04:53:43.026Z,8.10
2019-05-18T04:57:40.751Z,8.30
2019-05-18T05:01:46.106Z,8.40
2019-05-18T05:05:50.994Z,8.50
2019-05-18T05:09:56.167Z,8.70
2019-05-18T05:14:02.546Z,8.80
2019-05-18T05:18:03.403Z,9.10
2019-05-18T05:22:12.048Z,9.40
2019-05-18T05:26:19.454Z,9.70
2019-05-18T05:30:15.501Z,9.90
2019-05-18T05:34:21.304Z,10.00
2019-05-18T05:38:22.837Z,10.00
2019-05-18T05:42:26.185Z,9.90
2019-05-18T05:46:24.989Z,9.90
2019-05-18T05:50:35.192Z,10.00
2019-05-18T05:54:45.571Z,10.30
2019-05-18T05:58:47.578Z,10.60
2019-05-18T06:02:54.827Z,11.10
2019-05-18T06:06:53.693Z,11.20
2019-05-18T06:10:57.825Z,11.50
2019-05-18T06:14:56.314Z,11.80
2019-05-18T06:18:59.643Z,12.10
2019-05-18T06:22:59.048Z,12.60
2019-05-18T06:27:00.128Z,13.00
2019-05-18T06:31:06.025Z,13.40
2019-05-18T06:35:14.506Z,13.70
2019-05-18T06:39:12.969Z,13.80
2019-05-18T06:43:15.468Z,13.90
2019-05-18T06:47:21.524Z,14.10
2019-05-18T06:51:26.142Z,14.20
2019-05-18T06:55:28.576Z,14.30
2019-05-18T06:59:34.182Z,14.50
2019-05-18T07:03:34.264Z,14.30
2019-05-18T07:07:32.797Z,14.20
2019-05-18T07:11:40.896Z,14.40
2019-05-18T07:15:39.464Z,14.70
2019-05-18T07:19:41.917Z,14.80
2019-05-18T07:23:59.124Z,14.90
2019-05-18T07:27:57.694Z,15.20
2019-05-18T07:32:07.711Z,15.20
2019-05-18T07:36:09.784Z,15.20
2019-05-18T07:40:13.080Z,15.40
2019-05-18T07:44:15.905Z,15.50
2019-05-18T07:48:14.383Z,15.60
2019-05-18T07:52:17.470Z,15.70
2019-05-18T07:56:23.300Z,15.80
2019-05-18T08:00:23.685Z,15.90
2019-05-18T08:04:21.766Z,15.80
2019-05-18T08:08:23.100Z,15.70
2019-05-18T08:12:21.600Z,15.70
2019-05-18T08:16:20.208Z,15.80
2019-05-18T08:20:18.804Z,16.20
2019-05-18T08:24:19.766Z,16.60
2019-05-18T08:28:18.352Z,16.80
2019-05-18T08:32:19.589Z,17.00
2019-05-18T08:36:20.031Z,17.10
2019-05-18T08:40:18.820Z,17.20
2019-05-18T08:44:17.649Z,17.30
2019-05-18T08:48:19.110Z,17.60
2019-05-18T08:52:21.257Z,17.70
2019-05-18T08:56:19.988Z,17.80
2019-05-18T09:00:19.311Z,17.90
2019-05-18T09:04:17.794Z,17.90
2019-05-18T09:08:17.973Z,17.90
2019-05-18T09:12:19.793Z,18.10
2019-05-18T09:16:18.868Z,18.30
2019-05-18T09:20:19.114Z,18.50
2019-05-18T09:24:17.951Z,18.70
2019-05-18T09:28:16.563Z,18.90
2019-05-18T09:32:15.276Z,19.00
2019-05-18T09:36:13.820Z,19.00
2019-05-18T09:40:15.123Z,18.80
2019-05-18T09:44:16.020Z,19.00
2019-05-18T09:48:24.616Z,19.20
2019-05-18T09:52:44.126Z,19.00
2019-05-18T09:56:30.501Z,18.80
2019-05-18T10:00:35.079Z,18.80
2019-05-18T10:04:35.587Z,18.80
2019-05-18T10:08:39.035Z,18.80
2019-05-18T10:12:43.723Z,18.70
2019-05-18T10:16:42.421Z,18.50
2019-05-18T10:20:43.192Z,18.50
2019-05-18T10:24:43.951Z,18.70
2019-05-18T10:28:42.494Z,19.00
2019-05-18T10:32:41.119Z,19.20
2019-05-18T10:36:44.110Z,19.50
2019-05-18T10:40:44.533Z,19.50
2019-05-18T10:44:57.321Z,19.50
2019-05-18T10:48:43.551Z,19.50
2019-05-18T10:52:46.128Z,19.60
2019-05-18T10:56:44.776Z,19.70
2019-05-18T11:00:47.414Z,20.10
2019-05-18T11:04:50.477Z,20.50
2019-05-18T11:08:49.095Z,20.90
2019-05-18T11:12:47.721Z,21.40
2019-05-18T11:16:46.217Z,21.80
2019-05-18T11:20:48.413Z,22.30
2019-05-18T11:24:47.117Z,22.20
2019-05-18T11:28:45.989Z,21.80
2019-05-18T11:32:44.546Z,21.50
2019-05-18T11:36:52.690Z,21.30
2019-05-18T11:40:51.282Z,21.50
2019-05-18T11:44:51.819Z,22.00
2019-05-18T11:48:52.158Z,22.30
2019-05-18T11:52:54.101Z,22.60
2019-05-18T11:56:52.847Z,22.80
2019-05-18T12:00:51.479Z,23.00
2019-05-18T12:04:53.784Z,23.10
2019-05-18T12:08:58.374Z,23.20
2019-05-18T12:12:59.874Z,23.80
2019-05-18T12:17:13.462Z,23.70
2019-05-18T12:21:13.060Z,23.30
2019-05-18T12:25:25.327Z,23.00
2019-05-18T12:29:23.890Z,22.80
2019-05-18T12:33:22.970Z,22.40
2019-05-18T12:37:22.947Z,22.40
2019-05-18T12:41:30.404Z,22.70
2019-05-18T12:45:28.955Z,22.90
2019-05-18T12:49:27.916Z,22.30
2019-05-18T12:53:27.354Z,22.40
2019-05-18T12:57:31.663Z,22.70
2019-05-18T13:01:39.118Z,22.80
2019-05-18T13:05:38.212Z,22.70
2019-05-18T13:09:36.747Z,23.00
2019-05-18T13:13:35.183Z,23.30
2019-05-18T13:17:33.660Z,23.70
2019-05-18T13:21:32.912Z,24.30
2019-05-18T13:25:32.424Z,25.10
2019-05-18T13:29:31.068Z,25.50
2019-05-18T13:33:32.184Z,25.10
2019-05-18T13:37:32.691Z,24.50
2019-05-18T13:41:31.429Z,24.30
2019-05-18T13:45:31.917Z,23.80
2019-05-18T13:49:31.655Z,23.30
2019-05-18T13:53:33.037Z,22.80
2019-05-18T13:57:31.709Z,22.60
2019-05-18T14:01:30.604Z,22.60
2019-05-18T14:05:29.438Z,22.60
2019-05-18T14:09:30.493Z,22.70
2019-05-18T14:13:29.012Z,22.70
2019-05-18T14:17:31.814Z,22.80
2019-05-18T14:21:30.336Z,22.90
2019-05-18T14:25:32.745Z,22.90
2019-05-18T14:29:34.830Z,23.00
2019-05-18T14:33:35.097Z,23.10
2019-05-18T14:37:40.845Z,23.50
2019-05-18T14:41:42.491Z,24.50
2019-05-18T14:45:52.647Z,24.90
2019-05-18T14:49:53.784Z,24.70
2019-05-18T14:53:57.168Z,23.90
2019-05-18T14:57:55.687Z,23.10
2019-05-18T15:01:55.126Z,22.30
2019-05-18T15:05:53.807Z,21.80
2019-05-18T15:09:52.708Z,21.20
2019-05-18T15:13:51.641Z,20.90
2019-05-18T15:17:51.046Z,20.60
2019-05-18T15:21:49.850Z,20.70
2019-05-18T15:25:51.398Z,20.80
2019-05-18T15:29:52.800Z,20.70
2019-05-18T15:33:51.269Z,20.70
2019-05-18T15:37:49.749Z,20.70
2019-05-18T15:41:48.208Z,21.10
2019-05-18T15:45:47.494Z,24.00
2019-05-18T15:49:48.304Z,25.10
2019-05-18T15:53:46.818Z,27.80
2019-05-18T15:57:45.272Z,28.60
2019-05-18T16:01:43.841Z,28.80
2019-05-18T16:05:42.593Z,29.70
2019-05-18T16:09:46.266Z,30.40
2019-05-18T16:13:44.256Z,31.40
2019-05-18T16:17:42.724Z,31.60
2019-05-18T16:21:45.872Z,29.50
2019-05-18T16:25:45.102Z,27.30
2019-05-18T16:29:44.186Z,25.60
2019-05-18T16:33:47.751Z,24.60
2019-05-18T16:37:51.747Z,23.80
2019-05-18T16:41:51.333Z,22.70
2019-05-18T16:45:49.873Z,22.60
2019-05-18T16:49:48.733Z,23.20
2019-05-18T16:53:53.167Z,24.40
2019-05-18T16:57:51.766Z,25.00
2019-05-18T17:01:52.397Z,25.30
2019-05-18T17:05:52.246Z,24.30
2019-05-18T17:09:50.733Z,23.10
2019-05-18T17:13:51.212Z,22.30
2019-05-18T17:17:49.684Z,21.70
2019-05-18T17:21:49.681Z,21.40
2019-05-18T17:25:49.688Z,21.10
2019-05-18T17:29:52.220Z,20.90
2019-05-18T17:33:50.677Z,20.90
2019-05-18T17:37:49.161Z,21.10
2019-05-18T17:41:51.239Z,21.30
2019-05-18T17:45:50.160Z,21.30
2019-05-18T17:49:48.639Z,21.10
2019-05-18T17:53:47.226Z,20.90
2019-05-18T17:57:47.305Z,20.70
2019-05-18T18:01:45.848Z,20.40
2019-05-18T18:05:44.443Z,20.10
2019-05-18T18:09:42.975Z,19.80
2019-05-18T18:13:41.502Z,19.60
2019-05-18T18:17:39.975Z,19.40
2019-05-18T18:21:40.316Z,19.30
2019-05-18T18:25:40.335Z,19.10
2019-05-18T18:29:38.871Z,18.90
2019-05-18T18:33:41.426Z,18.70
2019-05-18T18:37:40.063Z,18.50
2019-05-18T18:41:40.142Z,18.30
2019-05-18T18:45:53.178Z,18.10
2019-05-18T18:49:41.178Z,17.90
2019-05-18T18:53:39.849Z,17.80
2019-05-18T18:57:41.882Z,17.50
2019-05-18T19:01:41.195Z,17.40
2019-05-18T19:05:39.663Z,17.10
2019-05-18T19:09:38.229Z,16.90
2019-05-18T19:13:38.719Z,16.80
2019-05-18T19:17:37.005Z,16.60
2019-05-18T19:21:35.568Z,16.50
2019-05-18T19:25:42.840Z,16.40
2019-05-18T19:29:40.778Z,16.40
2019-05-18T19:33:39.330Z,16.40
2019-05-18T19:37:37.878Z,16.40
2019-05-18T19:41:39.563Z,16.40
2019-05-18T19:45:38.080Z,16.40
2019-05-18T19:49:38.372Z,16.40
2019-05-18T19:53:41.470Z,16.30
2019-05-18T19:57:40.372Z,16.20
2019-05-18T20:01:38.865Z,16.20
2019-05-18T20:05:43.702Z,16.00
2019-05-18T20:09:42.172Z,16.00
2019-05-18T20:13:46.063Z,16.00
2019-05-18T20:17:48.671Z,16.00
2019-05-18T20:21:48.255Z,15.90
2019-05-18T20:25:46.703Z,15.80
2019-05-18T20:29:45.170Z,15.70
2019-05-18T20:33:43.808Z,15.60
2019-05-18T20:37:44.838Z,15.50
2019-05-18T20:41:47.978Z,15.50
2019-05-18T20:45:46.439Z,15.40
2019-05-18T20:49:44.909Z,15.40
2019-05-18T20:53:50.278Z,15.50
2019-05-18T20:57:53.734Z,15.40
2019-05-18T21:01:52.518Z,15.50
2019-05-18T21:05:51.305Z,15.50
2019-05-18T21:09:49.804Z,15.50
2019-05-18T21:13:48.270Z,15.50
2019-05-18T21:17:52.362Z,15.60
2019-05-18T21:21:53.148Z,15.60
2019-05-18T21:29:56.933Z,15.40
2019-05-18T21:33:55.772Z,15.30
2019-05-18T21:37:57.656Z,15.30
2019-05-18T21:41:56.387Z,15.30
2019-05-18T21:45:57.344Z,15.20
2019-05-18T21:49:57.533Z,15.20
2019-05-18T21:53:56.092Z,15.20
2019-05-18T21:57:58.063Z,15.20
2019-05-18T22:02:07.517Z,15.20
2019-05-18T22:06:10.427Z,15.10
2019-05-18T22:10:25.292Z,15.10
2019-05-18T22:14:24.477Z,15.00
2019-05-18T22:18:24.767Z,15.00
2019-05-18T22:22:27.991Z,15.00
2019-05-18T22:26:26.706Z,15.00
2019-05-18T22:30:25.636Z,14.90
2019-05-18T22:34:24.360Z,14.90
2019-05-18T22:38:22.826Z,14.80
2019-05-18T22:42:31.975Z,14.70
2019-05-18T22:46:30.985Z,14.60
2019-05-18T22:52:27.153Z,14.50
2019-05-18T22:55:01.946Z,14.50
2019-05-18T22:59:19.985Z,14.30
2019-05-18T23:03:18.654Z,14.10
2019-05-18T23:07:17.544Z,13.90
2019-05-18T23:11:21.348Z,13.80
2019-05-18T23:15:19.927Z,13.80
2019-05-18T23:19:42.355Z,13.70
2019-05-18T23:23:40.891Z,13.60
2019-05-18T23:27:43.724Z,13.50
2019-05-18T23:31:47.364Z,13.50
2019-05-18T23:35:54.293Z,13.40
2019-05-18T23:39:55.386Z,13.30
2019-05-18T23:44:05.970Z,13.20
2019-05-18T23:48:05.305Z,13.10
2019-05-18T23:52:11.199Z,13.10
2019-05-18T23:56:09.929Z,13.00
